Strona główna
METAR-TAF:

METAR-TAF

Lotnisko :

Anderson, Indiana, Stany Zjednoczone

Szerokość geograficzna: 40-07N, Długość geograficzna: 085-37W, wysokość: 280 m

Aktualna obserwacja pogody

Raport powstał 7 godziny i 13 minut temu, godzina 13:35 UTC
Cisza
Temperatura 22°C
Wilgotność 88%
Ciśnienie 1011 hPa
Widzialność: 16.1 km
Rozproszone chmury na wysokości 11000 ft

METAR: KAID 041335Z AUTO 00000KT 10SM SCT110 22/20 A2984 RMK AO2 T02150195

czas: 16:48 (20:48 UTC)


TAF: brakujący

Obserwacja i prognoza pogody dla ponad 4000 lotnisk (raport METAR i TAF).

Dostępne stacje oznaczono żółtymi i czerwonymi punktami na mapie.

Najedź kursorem aby zobaczyć nazwę stacji.

Kliknij aby zobaczyć obserwacje i prognozy pogody.

Aby zmienić mapę: kliknij na zielony przycisk z czarnym krzyżykiem, aby powiększyć; na zielony przycisk z myślnikiem, aby pomniejszyć; na zielone strzałki, aby przejść do map sąsiednich.


METAR-TAF: